createdAt,value
2023-05-21T00:00:23.670Z,1.10
2023-05-21T00:02:54.425Z,1.17
2023-05-21T00:05:26.956Z,1.27
2023-05-21T00:07:57.717Z,1.33
2023-05-21T00:10:28.733Z,1.00
2023-05-21T00:13:01.478Z,1.07
2023-05-21T00:15:32.308Z,1.10
2023-05-21T00:18:03.584Z,1.33
2023-05-21T00:20:37.221Z,1.00
2023-05-21T00:23:08.046Z,1.40
2023-05-21T00:25:38.792Z,1.53
2023-05-21T00:28:09.512Z,1.30
2023-05-21T00:30:40.662Z,1.10
2023-05-21T00:33:14.905Z,1.13
2023-05-21T00:35:47.299Z,1.40
2023-05-21T00:38:18.754Z,1.20
2023-05-21T00:40:49.564Z,1.20
2023-05-21T00:43:20.444Z,1.10
2023-05-21T00:45:51.184Z,1.23
2023-05-21T00:48:22.523Z,1.10
2023-05-21T00:50:55.607Z,1.20
2023-05-21T00:53:26.506Z,1.10
2023-05-21T00:55:57.361Z,1.00
2023-05-21T00:58:28.390Z,1.20
2023-05-21T01:00:59.460Z,0.90
2023-05-21T01:03:30.481Z,1.10
2023-05-21T01:06:04.241Z,0.83
2023-05-21T01:08:36.203Z,0.90
2023-05-21T01:11:07.982Z,0.73
2023-05-21T01:13:41.876Z,0.80
2023-05-21T01:16:14.445Z,0.80
2023-05-21T01:18:47.621Z,0.80
2023-05-21T01:21:21.364Z,0.70
2023-05-21T01:23:54.308Z,0.80
2023-05-21T01:26:26.858Z,0.90
2023-05-21T01:28:57.813Z,0.77
2023-05-21T01:31:33.708Z,0.90
2023-05-21T01:34:08.241Z,1.10
2023-05-21T01:36:45.839Z,0.90
2023-05-21T01:39:23.691Z,0.87
2023-05-21T01:41:57.775Z,0.60
2023-05-21T01:44:29.948Z,0.80
2023-05-21T01:47:01.964Z,0.60
2023-05-21T01:49:33.189Z,0.80
2023-05-21T01:52:04.386Z,0.87
2023-05-21T01:54:37.016Z,0.70
2023-05-21T01:57:08.097Z,0.80
2023-05-21T01:59:39.681Z,1.10
2023-05-21T02:02:10.616Z,0.80
2023-05-21T02:04:42.845Z,1.00
2023-05-21T02:07:15.200Z,0.70
2023-05-21T02:09:48.014Z,0.70
2023-05-21T02:12:18.863Z,0.70
2023-05-21T02:14:51.237Z,1.00
2023-05-21T02:17:22.684Z,0.80
2023-05-21T02:19:53.552Z,0.73
2023-05-21T02:22:24.329Z,0.87
2023-05-21T02:24:56.697Z,0.50
2023-05-21T02:27:28.129Z,0.63
2023-05-21T02:29:58.856Z,0.70
2023-05-21T02:32:29.623Z,0.70
2023-05-21T02:35:00.968Z,0.60
2023-05-21T02:37:34.708Z,0.90
2023-05-21T02:40:11.192Z,1.10
2023-05-21T02:42:45.805Z,0.70
2023-05-21T02:45:17.079Z,0.63
2023-05-21T02:47:48.944Z,0.90
2023-05-21T02:50:20.040Z,1.00
2023-05-21T02:52:51.380Z,1.00
2023-05-21T02:55:25.312Z,0.90
2023-05-21T02:57:57.049Z,0.83
2023-05-21T03:00:28.931Z,0.77
2023-05-21T03:03:00.070Z,1.03
2023-05-21T03:05:32.528Z,1.00
2023-05-21T03:08:14.948Z,0.83
2023-05-21T03:10:51.905Z,1.03
2023-05-21T03:13:25.222Z,1.03
2023-05-21T03:18:34.335Z,0.80
2023-05-21T03:23:43.323Z,0.80
2023-05-21T03:26:21.879Z,0.50
2023-05-21T03:28:56.319Z,0.70
2023-05-21T03:31:30.260Z,0.60
2023-05-21T03:34:05.246Z,0.80
2023-05-21T03:36:36.995Z,0.70
2023-05-21T03:40:10.900Z,0.70
2023-05-21T03:42:45.885Z,0.80
2023-05-21T03:45:19.070Z,0.60
2023-05-21T03:47:52.322Z,0.70
2023-05-21T03:50:41.289Z,0.97
2023-05-21T03:53:14.587Z,0.60
2023-05-21T04:01:47.052Z,1.00
2023-05-21T04:04:19.447Z,0.93
2023-05-21T04:06:55.336Z,1.00
2023-05-21T04:15:07.858Z,0.70
2023-05-21T04:20:18.742Z,0.80
2023-05-21T04:22:52.009Z,0.97
2023-05-21T04:25:25.045Z,0.80
2023-05-21T04:27:56.858Z,0.80
2023-05-21T04:30:32.496Z,0.97
2023-05-21T04:33:04.077Z,0.70
2023-05-21T04:35:36.842Z,0.77
2023-05-21T04:38:10.155Z,0.90
2023-05-21T04:40:45.399Z,1.40
2023-05-21T04:56:43.562Z,1.10
2023-05-21T05:23:34.652Z,1.30
2023-05-21T05:26:09.646Z,1.47
2023-05-21T21:25:40.037Z,1.20
2023-05-21T21:28:12.174Z,1.13
2023-05-21T21:30:46.012Z,1.00
2023-05-21T21:33:19.328Z,0.90
2023-05-21T21:35:51.344Z,0.90
2023-05-21T21:38:22.812Z,1.17
2023-05-21T21:40:56.218Z,1.20
2023-05-21T21:43:26.988Z,0.93
2023-05-21T21:45:58.225Z,1.20
2023-05-21T21:48:29.632Z,0.80
2023-05-21T21:51:01.576Z,0.87
2023-05-21T21:53:32.269Z,1.00
2023-05-21T21:56:04.671Z,1.00
2023-05-21T21:58:35.382Z,1.10
2023-05-21T22:01:06.460Z,1.30
2023-05-21T22:03:37.897Z,1.20
2023-05-21T22:06:10.319Z,1.20
2023-05-21T22:08:41.738Z,1.20
2023-05-21T22:11:15.311Z,0.90
2023-05-21T22:13:46.704Z,1.23
2023-05-21T22:16:18.581Z,1.27
2023-05-21T22:18:51.106Z,1.03
2023-05-21T22:21:28.021Z,1.27
2023-05-21T22:23:59.747Z,1.20
2023-05-21T22:26:35.647Z,1.50
2023-05-21T22:29:06.599Z,1.20
2023-05-21T22:31:37.768Z,1.00
2023-05-21T22:34:08.832Z,1.13
2023-05-21T22:36:41.406Z,0.90
2023-05-21T22:39:12.386Z,1.17
2023-05-21T22:41:45.743Z,1.13
2023-05-21T22:44:17.236Z,1.17
2023-05-21T22:46:48.556Z,1.40
2023-05-21T22:49:20.553Z,1.20
2023-05-21T22:51:53.497Z,1.00
2023-05-21T22:54:25.157Z,1.03
2023-05-21T22:56:58.270Z,0.97
2023-05-21T22:59:29.739Z,1.10
2023-05-21T23:02:02.426Z,1.10
2023-05-21T23:04:43.736Z,1.43
2023-05-21T23:07:16.502Z,1.10
2023-05-21T23:09:47.868Z,1.10
2023-05-21T23:12:21.230Z,1.00
2023-05-21T23:14:52.736Z,0.90
2023-05-21T23:17:24.762Z,1.07
2023-05-21T23:19:55.508Z,0.80
2023-05-21T23:25:11.440Z,0.90
2023-05-21T23:27:44.891Z,1.30
2023-05-21T23:30:16.522Z,1.10
2023-05-21T23:32:57.014Z,1.13
2023-05-21T23:35:27.847Z,1.00
2023-05-21T23:37:58.955Z,0.87
2023-05-21T23:40:30.632Z,1.00
2023-05-21T23:43:03.622Z,1.10
2023-05-21T23:45:34.746Z,1.13
2023-05-21T23:48:06.121Z,1.03
2023-05-21T23:50:37.893Z,0.90
2023-05-21T23:53:09.579Z,0.93
2023-05-21T23:55:40.991Z,1.10
2023-05-21T23:58:14.987Z,1.10
